Kaleen Mc Allister — WDB3847 — position and weather

sailwx.info

Track history (hours):
 
Tides and Currents Weather Stations Pressure Air Temp Water Temp Dewpoint Dewpoint Depression Visibility Wind Speed Wind Dir Waves Ship Positions

Kaleen Mc Allister

Owner: MC ALLISTER TOWING & TRANSPORTATION INC, NEW YORK, NY. More information available from US FCC via Universal Licensing System and Coast Guard Vessel Documentation Center.

Last reported at 2014-Nov-19 16:27 UTC. Time now 2014-Nov-28 12:20 UTC.
Position N 40°38' W 074°10'.
Warning: this ship's position is 8 days out of date.

Length 20 m.

Type: Towing. MMSI: 366891960.

Date/timePositionNaut miles runAvg speedWind from/ knotsBaromVisibWave heightAir tempDewpointWater temp
2014-Nov-19 16:27N 40°38' W 074°10'0 0.0
2014-Nov-19 15:33N 40°38' W 074°10'0 0.0
2014-Nov-19 13:27N 40°38' W 074°10'1 1.0
2014-Nov-19 12:33N 40°39' W 074°09'5 4.7
2014-Nov-19 11:33N 40°38' W 074°03'5 0.5
2014-Nov-19 01:18N 40°38' W 074°10'0 0.0
2014-Nov-19 00:31N 40°38' W 074°10'0 0.0
2014-Nov-18 19:22N 40°38' W 074°10'5 5.6
2014-Nov-18 18:34N 40°40' W 074°04'2 1.8
2014-Nov-18 17:34N 40°38' W 074°03'5 5.0
2014-Nov-18 16:33N 40°38' W 074°10'0 0.0
2014-Nov-18 13:07N 40°38' W 074°10'2 4.1
2014-Nov-18 12:33N 40°40' W 074°08'1 0.6
2014-Nov-18 11:34N 40°41' W 074°09'1 1.1
2014-Nov-18 10:30N 40°40' W 074°09'1 1.2
2014-Nov-18 09:33N 40°38' W 074°09'  
Track history (hours):
 
Tides and Currents Weather Stations Pressure Air Temp Water Temp Dewpoint Dewpoint Depression Visibility Wind Speed Wind Dir Waves Ship Positions

Kaleen Mc Allister

Owner: MC ALLISTER TOWING & TRANSPORTATION INC, NEW YORK, NY. More information available from US FCC via Universal Licensing System and Coast Guard Vessel Documentation Center.

Last reported at 2014-Nov-19 16:27 UTC. Time now 2014-Nov-28 12:20 UTC.
Position N 40°38' W 074°10'.
Warning: this ship's position is 8 days out of date.

Length 20 m.

Type: Towing. MMSI: 366891960.

Date/timePositionNaut miles runAvg speedWind from/ knotsBaromVisibWave heightAir tempDewpointWater temp
2014-Nov-19 16:27N 40°38' W 074°10'0 0.0
2014-Nov-19 15:33N 40°38' W 074°10'0 0.0
2014-Nov-19 13:27N 40°38' W 074°10'1 1.0
2014-Nov-19 12:33N 40°39' W 074°09'5 4.7
2014-Nov-19 11:33N 40°38' W 074°03'5 0.5
2014-Nov-19 01:18N 40°38' W 074°10'0 0.0
2014-Nov-19 00:31N 40°38' W 074°10'0 0.0
2014-Nov-18 19:22N 40°38' W 074°10'5 5.6
2014-Nov-18 18:34N 40°40' W 074°04'2 1.8
2014-Nov-18 17:34N 40°38' W 074°03'5 5.0
2014-Nov-18 16:33N 40°38' W 074°10'0 0.0
2014-Nov-18 13:07N 40°38' W 074°10'2 4.1
2014-Nov-18 12:33N 40°40' W 074°08'1 0.6
2014-Nov-18 11:34N 40°41' W 074°09'1 1.1
2014-Nov-18 10:30N 40°40' W 074°09'1 1.2
2014-Nov-18 09:33N 40°38' W 074°09'  

Dump ship's entire track history